sensor_id;sensor_type;location;lat;lon;timestamp;temperature;humidity
37322;DHT22;23697;48.684;9.032;2023-11-21T00:02:05;7.00;91.10
37322;DHT22;23697;48.684;9.032;2023-11-21T00:04:32;7.00;91.20
37322;DHT22;23697;48.684;9.032;2023-11-21T00:07:00;7.00;91.20
37322;DHT22;23697;48.684;9.032;2023-11-21T00:09:27;7.10;91.20
37322;DHT22;23697;48.684;9.032;2023-11-21T00:11:54;7.00;91.20
37322;DHT22;23697;48.684;9.032;2023-11-21T00:14:20;7.10;91.20
37322;DHT22;23697;48.684;9.032;2023-11-21T00:16:47;7.10;91.20
37322;DHT22;23697;48.684;9.032;2023-11-21T00:19:14;7.10;91.20
37322;DHT22;23697;48.684;9.032;2023-11-21T00:21:42;7.10;91.20
37322;DHT22;23697;48.684;9.032;2023-11-21T00:24:11;7.10;91.20
37322;DHT22;23697;48.684;9.032;2023-11-21T00:26:39;7.10;91.30
37322;DHT22;23697;48.684;9.032;2023-11-21T00:29:06;7.10;91.20
37322;DHT22;23697;48.684;9.032;2023-11-21T00:31:33;7.10;91.30
37322;DHT22;23697;48.684;9.032;2023-11-21T00:34:02;7.20;91.30
37322;DHT22;23697;48.684;9.032;2023-11-21T00:36:30;7.10;91.30
37322;DHT22;23697;48.684;9.032;2023-11-21T00:38:57;7.10;91.30
37322;DHT22;23697;48.684;9.032;2023-11-21T00:41:25;7.10;91.30
37322;DHT22;23697;48.684;9.032;2023-11-21T00:43:53;7.10;91.30
37322;DHT22;23697;48.684;9.032;2023-11-21T00:46:20;7.10;91.30
37322;DHT22;23697;48.684;9.032;2023-11-21T00:48:47;7.10;91.40
37322;DHT22;23697;48.684;9.032;2023-11-21T00:51:14;7.10;91.40
37322;DHT22;23697;48.684;9.032;2023-11-21T00:53:40;7.10;91.40
37322;DHT22;23697;48.684;9.032;2023-11-21T00:56:07;7.10;91.40
37322;DHT22;23697;48.684;9.032;2023-11-21T00:58:36;7.10;91.40
37322;DHT22;23697;48.684;9.032;2023-11-21T01:01:02;7.10;91.40
37322;DHT22;23697;48.684;9.032;2023-11-21T01:03:29;7.10;91.40
37322;DHT22;23697;48.684;9.032;2023-11-21T01:05:56;7.10;91.40
37322;DHT22;23697;48.684;9.032;2023-11-21T01:08:22;7.10;91.50
37322;DHT22;23697;48.684;9.032;2023-11-21T01:10:50;7.10;91.50
37322;DHT22;23697;48.684;9.032;2023-11-21T01:13:16;7.10;91.50
37322;DHT22;23697;48.684;9.032;2023-11-21T01:15:45;7.10;91.50
37322;DHT22;23697;48.684;9.032;2023-11-21T01:18:12;7.10;91.50
37322;DHT22;23697;48.684;9.032;2023-11-21T01:20:38;7.10;91.50
37322;DHT22;23697;48.684;9.032;2023-11-21T01:23:05;7.10;91.50
37322;DHT22;23697;48.684;9.032;2023-11-21T01:25:32;7.10;91.50
37322;DHT22;23697;48.684;9.032;2023-11-21T01:27:59;7.10;91.50
37322;DHT22;23697;48.684;9.032;2023-11-21T01:30:25;7.10;91.50
37322;DHT22;23697;48.684;9.032;2023-11-21T01:32:54;7.10;91.50
37322;DHT22;23697;48.684;9.032;2023-11-21T01:35:20;7.10;91.50
37322;DHT22;23697;48.684;9.032;2023-11-21T01:37:47;7.10;91.50
37322;DHT22;23697;48.684;9.032;2023-11-21T01:40:15;7.10;91.40
37322;DHT22;23697;48.684;9.032;2023-11-21T01:42:42;7.10;91.40
37322;DHT22;23697;48.684;9.032;2023-11-21T01:45:10;7.10;91.40
37322;DHT22;23697;48.684;9.032;2023-11-21T01:47:38;7.10;91.40
37322;DHT22;23697;48.684;9.032;2023-11-21T01:50:09;7.10;91.40
37322;DHT22;23697;48.684;9.032;2023-11-21T01:52:38;7.10;91.40
37322;DHT22;23697;48.684;9.032;2023-11-21T01:55:07;7.00;91.40
37322;DHT22;23697;48.684;9.032;2023-11-21T01:57:35;7.00;91.40
37322;DHT22;23697;48.684;9.032;2023-11-21T02:00:03;7.00;91.40
37322;DHT22;23697;48.684;9.032;2023-11-21T02:02:41;7.00;91.40
37322;DHT22;23697;48.684;9.032;2023-11-21T02:05:09;7.00;91.30
37322;DHT22;23697;48.684;9.032;2023-11-21T02:07:38;7.00;91.30
37322;DHT22;23697;48.684;9.032;2023-11-21T02:10:06;6.90;91.30
37322;DHT22;23697;48.684;9.032;2023-11-21T02:12:33;7.00;91.40
37322;DHT22;23697;48.684;9.032;2023-11-21T02:15:00;7.00;91.40
37322;DHT22;23697;48.684;9.032;2023-11-21T02:17:28;7.00;91.40
37322;DHT22;23697;48.684;9.032;2023-11-21T02:19:55;7.00;91.40
37322;DHT22;23697;48.684;9.032;2023-11-21T02:22:24;6.90;91.40
37322;DHT22;23697;48.684;9.032;2023-11-21T02:24:53;6.90;91.40
37322;DHT22;23697;48.684;9.032;2023-11-21T02:27:20;6.90;91.40
37322;DHT22;23697;48.684;9.032;2023-11-21T02:29:49;6.90;91.40
37322;DHT22;23697;48.684;9.032;2023-11-21T02:32:15;6.90;91.40
37322;DHT22;23697;48.684;9.032;2023-11-21T02:34:45;6.90;91.40
37322;DHT22;23697;48.684;9.032;2023-11-21T02:37:12;6.90;91.40
37322;DHT22;23697;48.684;9.032;2023-11-21T02:39:38;6.80;91.40
37322;DHT22;23697;48.684;9.032;2023-11-21T02:42:07;6.80;91.50
37322;DHT22;23697;48.684;9.032;2023-11-21T02:44:34;6.80;91.40
37322;DHT22;23697;48.684;9.032;2023-11-21T02:47:01;6.80;91.40
37322;DHT22;23697;48.684;9.032;2023-11-21T02:49:29;6.80;91.40
37322;DHT22;23697;48.684;9.032;2023-11-21T02:51:56;6.80;91.40
37322;DHT22;23697;48.684;9.032;2023-11-21T02:54:23;6.80;91.40
37322;DHT22;23697;48.684;9.032;2023-11-21T02:56:50;6.80;91.40
37322;DHT22;23697;48.684;9.032;2023-11-21T02:59:18;6.80;91.40
37322;DHT22;23697;48.684;9.032;2023-11-21T03:01:45;6.80;91.40
37322;DHT22;23697;48.684;9.032;2023-11-21T03:04:12;6.70;91.30
37322;DHT22;23697;48.684;9.032;2023-11-21T03:06:43;6.70;91.30
37322;DHT22;23697;48.684;9.032;2023-11-21T03:09:09;6.70;91.30
37322;DHT22;23697;48.684;9.032;2023-11-21T03:11:37;6.70;91.30
37322;DHT22;23697;48.684;9.032;2023-11-21T03:14:04;6.70;91.30
37322;DHT22;23697;48.684;9.032;2023-11-21T03:16:33;6.60;91.30
37322;DHT22;23697;48.684;9.032;2023-11-21T03:19:00;6.60;91.30
37322;DHT22;23697;48.684;9.032;2023-11-21T03:21:26;6.60;91.30
37322;DHT22;23697;48.684;9.032;2023-11-21T03:23:54;6.60;91.40
37322;DHT22;23697;48.684;9.032;2023-11-21T03:26:20;6.60;91.40
37322;DHT22;23697;48.684;9.032;2023-11-21T03:28:47;6.50;91.40
37322;DHT22;23697;48.684;9.032;2023-11-21T03:31:14;6.60;91.40
37322;DHT22;23697;48.684;9.032;2023-11-21T03:33:44;6.60;91.40
37322;DHT22;23697;48.684;9.032;2023-11-21T03:36:11;6.60;91.50
37322;DHT22;23697;48.684;9.032;2023-11-21T03:38:38;6.60;91.50
37322;DHT22;23697;48.684;9.032;2023-11-21T03:41:05;6.60;91.40
37322;DHT22;23697;48.684;9.032;2023-11-21T03:43:32;6.60;91.40
37322;DHT22;23697;48.684;9.032;2023-11-21T03:45:59;6.60;91.40
37322;DHT22;23697;48.684;9.032;2023-11-21T03:48:26;6.60;91.50
37322;DHT22;23697;48.684;9.032;2023-11-21T03:50:54;6.60;91.50
37322;DHT22;23697;48.684;9.032;2023-11-21T03:53:21;6.70;91.40
37322;DHT22;23697;48.684;9.032;2023-11-21T03:55:48;6.60;91.40
37322;DHT22;23697;48.684;9.032;2023-11-21T03:58:15;6.60;91.50
37322;DHT22;23697;48.684;9.032;2023-11-21T04:00:42;6.70;91.40
37322;DHT22;23697;48.684;9.032;2023-11-21T04:03:09;6.70;91.40
37322;DHT22;23697;48.684;9.032;2023-11-21T04:05:35;6.70;91.40
37322;DHT22;23697;48.684;9.032;2023-11-21T04:08:04;6.60;91.40
37322;DHT22;23697;48.684;9.032;2023-11-21T04:10:31;6.70;91.40
37322;DHT22;23697;48.684;9.032;2023-11-21T04:12:58;6.70;91.40
37322;DHT22;23697;48.684;9.032;2023-11-21T04:15:25;6.70;91.40
37322;DHT22;23697;48.684;9.032;2023-11-21T04:17:52;6.70;91.40
37322;DHT22;23697;48.684;9.032;2023-11-21T04:20:19;6.70;91.30
37322;DHT22;23697;48.684;9.032;2023-11-21T04:22:46;6.80;91.40
37322;DHT22;23697;48.684;9.032;2023-11-21T04:25:15;6.70;91.40
37322;DHT22;23697;48.684;9.032;2023-11-21T04:27:44;6.80;91.40
37322;DHT22;23697;48.684;9.032;2023-11-21T04:30:12;6.70;91.40
37322;DHT22;23697;48.684;9.032;2023-11-21T04:32:38;6.70;91.40
37322;DHT22;23697;48.684;9.032;2023-11-21T04:35:06;6.70;91.50
37322;DHT22;23697;48.684;9.032;2023-11-21T04:37:34;6.70;91.50
37322;DHT22;23697;48.684;9.032;2023-11-21T04:40:01;6.70;91.50
37322;DHT22;23697;48.684;9.032;2023-11-21T04:42:33;6.70;91.50
37322;DHT22;23697;48.684;9.032;2023-11-21T04:45:00;6.70;91.50
37322;DHT22;23697;48.684;9.032;2023-11-21T04:47:30;6.70;91.60
37322;DHT22;23697;48.684;9.032;2023-11-21T04:49:57;6.70;91.60
37322;DHT22;23697;48.684;9.032;2023-11-21T04:52:24;6.80;91.60
37322;DHT22;23697;48.684;9.032;2023-11-21T04:54:51;6.70;91.60
37322;DHT22;23697;48.684;9.032;2023-11-21T04:57:19;6.70;91.60
37322;DHT22;23697;48.684;9.032;2023-11-21T04:59:48;6.60;91.60
37322;DHT22;23697;48.684;9.032;2023-11-21T05:02:16;6.60;91.60
37322;DHT22;23697;48.684;9.032;2023-11-21T05:04:44;6.70;91.70
37322;DHT22;23697;48.684;9.032;2023-11-21T05:07:11;6.60;91.60
37322;DHT22;23697;48.684;9.032;2023-11-21T05:09:41;6.70;91.70
37322;DHT22;23697;48.684;9.032;2023-11-21T05:12:09;6.70;91.70
37322;DHT22;23697;48.684;9.032;2023-11-21T05:14:37;6.60;91.70
37322;DHT22;23697;48.684;9.032;2023-11-21T05:17:05;6.70;91.70
37322;DHT22;23697;48.684;9.032;2023-11-21T05:19:33;6.70;91.70
37322;DHT22;23697;48.684;9.032;2023-11-21T05:22:01;6.60;91.70
37322;DHT22;23697;48.684;9.032;2023-11-21T05:24:28;6.60;91.70
37322;DHT22;23697;48.684;9.032;2023-11-21T05:26:55;6.60;91.70
37322;DHT22;23697;48.684;9.032;2023-11-21T05:29:22;6.70;91.70
37322;DHT22;23697;48.684;9.032;2023-11-21T05:31:51;6.60;91.70
37322;DHT22;23697;48.684;9.032;2023-11-21T05:34:19;6.60;91.70
37322;DHT22;23697;48.684;9.032;2023-11-21T05:36:49;6.60;91.70
37322;DHT22;23697;48.684;9.032;2023-11-21T05:39:16;6.60;91.80
37322;DHT22;23697;48.684;9.032;2023-11-21T05:41:44;6.50;91.80
37322;DHT22;23697;48.684;9.032;2023-11-21T05:44:11;6.50;91.90
37322;DHT22;23697;48.684;9.032;2023-11-21T05:46:39;6.60;91.90
37322;DHT22;23697;48.684;9.032;2023-11-21T05:49:07;6.50;91.90
37322;DHT22;23697;48.684;9.032;2023-11-21T05:51:36;6.60;91.90
37322;DHT22;23697;48.684;9.032;2023-11-21T05:54:03;6.60;91.90
37322;DHT22;23697;48.684;9.032;2023-11-21T05:56:30;6.60;91.90
37322;DHT22;23697;48.684;9.032;2023-11-21T05:58:57;6.50;91.90
37322;DHT22;23697;48.684;9.032;2023-11-21T06:01:24;6.50;92.00
37322;DHT22;23697;48.684;9.032;2023-11-21T06:03:53;6.60;92.00
37322;DHT22;23697;48.684;9.032;2023-11-21T06:06:20;6.60;92.00
37322;DHT22;23697;48.684;9.032;2023-11-21T06:08:49;6.60;92.00
37322;DHT22;23697;48.684;9.032;2023-11-21T06:11:16;6.50;92.00
37322;DHT22;23697;48.684;9.032;2023-11-21T06:13:43;6.50;92.00
37322;DHT22;23697;48.684;9.032;2023-11-21T06:16:10;6.50;92.10
37322;DHT22;23697;48.684;9.032;2023-11-21T06:18:38;6.50;92.00
37322;DHT22;23697;48.684;9.032;2023-11-21T06:21:06;6.40;92.00
37322;DHT22;23697;48.684;9.032;2023-11-21T06:24:07;6.40;92.00
37322;DHT22;23697;48.684;9.032;2023-11-21T06:26:34;6.40;92.00
37322;DHT22;23697;48.684;9.032;2023-11-21T06:29:00;6.40;92.00
37322;DHT22;23697;48.684;9.032;2023-11-21T06:31:29;6.40;92.10
37322;DHT22;23697;48.684;9.032;2023-11-21T06:33:58;6.40;92.10
37322;DHT22;23697;48.684;9.032;2023-11-21T06:36:25;6.40;92.10
37322;DHT22;23697;48.684;9.032;2023-11-21T06:38:52;6.40;92.10
37322;DHT22;23697;48.684;9.032;2023-11-21T06:41:21;6.40;92.20
37322;DHT22;23697;48.684;9.032;2023-11-21T06:43:49;6.40;92.10
37322;DHT22;23697;48.684;9.032;2023-11-21T06:46:15;6.40;92.10
37322;DHT22;23697;48.684;9.032;2023-11-21T06:48:42;6.50;92.20
37322;DHT22;23697;48.684;9.032;2023-11-21T06:51:09;6.50;92.10
37322;DHT22;23697;48.684;9.032;2023-11-21T06:53:37;6.50;92.20
37322;DHT22;23697;48.684;9.032;2023-11-21T06:56:05;6.50;92.20
37322;DHT22;23697;48.684;9.032;2023-11-21T06:58:34;6.50;92.10
37322;DHT22;23697;48.684;9.032;2023-11-21T07:01:00;6.60;92.20
37322;DHT22;23697;48.684;9.032;2023-11-21T07:03:27;6.60;92.10
37322;DHT22;23697;48.684;9.032;2023-11-21T07:05:54;6.60;92.10
37322;DHT22;23697;48.684;9.032;2023-11-21T07:08:21;6.60;92.10
37322;DHT22;23697;48.684;9.032;2023-11-21T07:10:48;6.60;92.10
37322;DHT22;23697;48.684;9.032;2023-11-21T07:13:14;6.70;92.10
37322;DHT22;23697;48.684;9.032;2023-11-21T07:15:43;6.70;92.10
37322;DHT22;23697;48.684;9.032;2023-11-21T07:18:10;6.80;92.10
37322;DHT22;23697;48.684;9.032;2023-11-21T07:24:07;6.70;92.00
37322;DHT22;23697;48.684;9.032;2023-11-21T07:26:34;6.80;92.00
37322;DHT22;23697;48.684;9.032;2023-11-21T07:29:02;6.80;92.00
37322;DHT22;23697;48.684;9.032;2023-11-21T07:31:30;6.90;92.00
37322;DHT22;23697;48.684;9.032;2023-11-21T07:33:59;6.90;92.00
37322;DHT22;23697;48.684;9.032;2023-11-21T07:36:26;6.90;92.00
37322;DHT22;23697;48.684;9.032;2023-11-21T07:38:53;6.90;92.00
37322;DHT22;23697;48.684;9.032;2023-11-21T07:41:20;6.90;91.90
37322;DHT22;23697;48.684;9.032;2023-11-21T07:43:47;6.90;91.90
37322;DHT22;23697;48.684;9.032;2023-11-21T07:46:14;7.00;91.80
37322;DHT22;23697;48.684;9.032;2023-11-21T07:48:43;7.00;91.80
37322;DHT22;23697;48.684;9.032;2023-11-21T07:51:11;7.00;91.80
37322;DHT22;23697;48.684;9.032;2023-11-21T07:53:39;7.00;91.80
37322;DHT22;23697;48.684;9.032;2023-11-21T07:56:07;7.00;91.80
37322;DHT22;23697;48.684;9.032;2023-11-21T07:58:34;7.00;91.80
37322;DHT22;23697;48.684;9.032;2023-11-21T08:01:02;7.00;91.80
37322;DHT22;23697;48.684;9.032;2023-11-21T08:03:29;7.00;91.70
37322;DHT22;23697;48.684;9.032;2023-11-21T08:05:57;7.00;91.70
37322;DHT22;23697;48.684;9.032;2023-11-21T08:08:25;7.00;91.70
37322;DHT22;23697;48.684;9.032;2023-11-21T08:10:53;7.10;91.70
37322;DHT22;23697;48.684;9.032;2023-11-21T08:13:22;7.00;91.60
37322;DHT22;23697;48.684;9.032;2023-11-21T08:15:49;7.10;91.70
37322;DHT22;23697;48.684;9.032;2023-11-21T08:18:16;7.10;91.70
37322;DHT22;23697;48.684;9.032;2023-11-21T08:20:44;7.10;91.60
37322;DHT22;23697;48.684;9.032;2023-11-21T08:23:14;7.10;91.50
37322;DHT22;23697;48.684;9.032;2023-11-21T08:25:43;7.10;91.50
37322;DHT22;23697;48.684;9.032;2023-11-21T08:28:09;7.30;91.60
37322;DHT22;23697;48.684;9.032;2023-11-21T08:30:36;7.30;91.40
37322;DHT22;23697;48.684;9.032;2023-11-21T08:33:02;7.40;91.40
37322;DHT22;23697;48.684;9.032;2023-11-21T08:35:29;7.40;91.40
37322;DHT22;23697;48.684;9.032;2023-11-21T08:37:56;7.60;91.40
37322;DHT22;23697;48.684;9.032;2023-11-21T08:40:24;7.70;91.40
37322;DHT22;23697;48.684;9.032;2023-11-21T08:42:51;7.70;91.30
37322;DHT22;23697;48.684;9.032;2023-11-21T08:45:18;7.80;91.30
37322;DHT22;23697;48.684;9.032;2023-11-21T08:47:45;7.90;91.20
37322;DHT22;23697;48.684;9.032;2023-11-21T08:50:12;8.10;91.20
37322;DHT22;23697;48.684;9.032;2023-11-21T08:52:40;8.10;91.10
37322;DHT22;23697;48.684;9.032;2023-11-21T08:55:08;8.10;91.00
37322;DHT22;23697;48.684;9.032;2023-11-21T08:57:36;8.10;90.70
37322;DHT22;23697;48.684;9.032;2023-11-21T09:00:06;8.10;90.60
37322;DHT22;23697;48.684;9.032;2023-11-21T09:02:37;8.10;90.50
37322;DHT22;23697;48.684;9.032;2023-11-21T09:05:04;8.10;90.60
37322;DHT22;23697;48.684;9.032;2023-11-21T09:07:32;8.10;90.60
37322;DHT22;23697;48.684;9.032;2023-11-21T09:09:58;8.00;90.50
37322;DHT22;23697;48.684;9.032;2023-11-21T09:12:25;8.00;90.50
37322;DHT22;23697;48.684;9.032;2023-11-21T09:14:53;8.00;90.30
37322;DHT22;23697;48.684;9.032;2023-11-21T09:17:20;8.00;90.40
37322;DHT22;23697;48.684;9.032;2023-11-21T09:19:47;8.00;90.30
37322;DHT22;23697;48.684;9.032;2023-11-21T09:22:16;8.00;90.30
37322;DHT22;23697;48.684;9.032;2023-11-21T09:24:43;8.10;90.30
37322;DHT22;23697;48.684;9.032;2023-11-21T09:27:10;8.10;90.40
37322;DHT22;23697;48.684;9.032;2023-11-21T09:29:37;8.10;90.40
37322;DHT22;23697;48.684;9.032;2023-11-21T09:32:06;8.20;90.30
37322;DHT22;23697;48.684;9.032;2023-11-21T09:34:33;8.30;90.30
37322;DHT22;23697;48.684;9.032;2023-11-21T09:37:03;8.30;90.30
37322;DHT22;23697;48.684;9.032;2023-11-21T09:39:31;8.30;90.10
37322;DHT22;23697;48.684;9.032;2023-11-21T09:42:04;8.40;90.10
37322;DHT22;23697;48.684;9.032;2023-11-21T09:44:44;8.50;90.20
37322;DHT22;23697;48.684;9.032;2023-11-21T09:47:15;8.60;90.20
37322;DHT22;23697;48.684;9.032;2023-11-21T09:49:45;8.60;90.20
37322;DHT22;23697;48.684;9.032;2023-11-21T09:52:22;8.70;90.20
37322;DHT22;23697;48.684;9.032;2023-11-21T09:54:51;8.60;90.10
37322;DHT22;23697;48.684;9.032;2023-11-21T09:57:19;8.60;90.10
37322;DHT22;23697;48.684;9.032;2023-11-21T09:59:47;8.60;90.10
37322;DHT22;23697;48.684;9.032;2023-11-21T10:02:19;8.40;90.10
37322;DHT22;23697;48.684;9.032;2023-11-21T10:04:47;8.30;90.10
37322;DHT22;23697;48.684;9.032;2023-11-21T10:07:17;8.30;90.10
37322;DHT22;23697;48.684;9.032;2023-11-21T10:09:58;8.20;90.10
37322;DHT22;23697;48.684;9.032;2023-11-21T10:12:27;8.20;90.20
37322;DHT22;23697;48.684;9.032;2023-11-21T10:14:56;8.10;90.10
37322;DHT22;23697;48.684;9.032;2023-11-21T10:17:28;8.10;90.20
37322;DHT22;23697;48.684;9.032;2023-11-21T10:20:03;8.10;90.20
37322;DHT22;23697;48.684;9.032;2023-11-21T10:22:37;8.10;90.30
37322;DHT22;23697;48.684;9.032;2023-11-21T10:25:07;8.10;90.20
37322;DHT22;23697;48.684;9.032;2023-11-21T10:27:34;8.10;90.30
37322;DHT22;23697;48.684;9.032;2023-11-21T10:30:01;8.20;90.30
37322;DHT22;23697;48.684;9.032;2023-11-21T10:32:30;8.20;90.30
37322;DHT22;23697;48.684;9.032;2023-11-21T10:34:58;8.10;90.30
37322;DHT22;23697;48.684;9.032;2023-11-21T10:37:28;8.20;90.40
37322;DHT22;23697;48.684;9.032;2023-11-21T10:39:57;8.20;90.50
37322;DHT22;23697;48.684;9.032;2023-11-21T10:42:24;8.20;90.50
37322;DHT22;23697;48.684;9.032;2023-11-21T10:44:52;8.10;90.50
37322;DHT22;23697;48.684;9.032;2023-11-21T10:47:19;8.10;90.40
37322;DHT22;23697;48.684;9.032;2023-11-21T10:49:51;8.10;90.40
37322;DHT22;23697;48.684;9.032;2023-11-21T10:52:19;8.20;90.50
37322;DHT22;23697;48.684;9.032;2023-11-21T10:54:46;8.20;90.60
37322;DHT22;23697;48.684;9.032;2023-11-21T10:57:17;8.20;90.60
37322;DHT22;23697;48.684;9.032;2023-11-21T10:59:46;8.20;90.60
37322;DHT22;23697;48.684;9.032;2023-11-21T11:02:25;8.20;90.60
37322;DHT22;23697;48.684;9.032;2023-11-21T11:04:54;8.20;90.60
37322;DHT22;23697;48.684;9.032;2023-11-21T11:07:26;8.30;90.60
37322;DHT22;23697;48.684;9.032;2023-11-21T11:09:53;8.20;90.60
37322;DHT22;23697;48.684;9.032;2023-11-21T11:12:20;8.20;90.60
37322;DHT22;23697;48.684;9.032;2023-11-21T11:14:48;8.20;90.70
37322;DHT22;23697;48.684;9.032;2023-11-21T11:17:15;8.20;90.70
37322;DHT22;23697;48.684;9.032;2023-11-21T11:19:45;8.20;90.70
37322;DHT22;23697;48.684;9.032;2023-11-21T11:22:23;8.20;90.80
37322;DHT22;23697;48.684;9.032;2023-11-21T11:25:03;8.20;90.90
37322;DHT22;23697;48.684;9.032;2023-11-21T11:27:48;8.30;90.90
37322;DHT22;23697;48.684;9.032;2023-11-21T11:30:26;8.30;90.90
37322;DHT22;23697;48.684;9.032;2023-11-21T11:33:01;8.40;90.90
37322;DHT22;23697;48.684;9.032;2023-11-21T11:35:37;8.50;91.00
37322;DHT22;23697;48.684;9.032;2023-11-21T11:38:06;8.60;91.00
37322;DHT22;23697;48.684;9.032;2023-11-21T11:40:40;8.60;90.90
37322;DHT22;23697;48.684;9.032;2023-11-21T11:43:07;8.50;90.80
37322;DHT22;23697;48.684;9.032;2023-11-21T11:45:34;8.50;90.70
37322;DHT22;23697;48.684;9.032;2023-11-21T11:48:06;8.40;90.60
37322;DHT22;23697;48.684;9.032;2023-11-21T11:50:33;8.40;90.60
37322;DHT22;23697;48.684;9.032;2023-11-21T11:53:14;8.50;90.70
37322;DHT22;23697;48.684;9.032;2023-11-21T11:55:41;8.50;90.70
37322;DHT22;23697;48.684;9.032;2023-11-21T11:58:08;8.50;90.70
37322;DHT22;23697;48.684;9.032;2023-11-21T12:00:36;8.50;90.60
37322;DHT22;23697;48.684;9.032;2023-11-21T12:03:06;8.50;90.60
37322;DHT22;23697;48.684;9.032;2023-11-21T12:05:34;8.50;90.60
37322;DHT22;23697;48.684;9.032;2023-11-21T12:08:05;8.50;90.60
37322;DHT22;23697;48.684;9.032;2023-11-21T12:10:34;8.50;90.70
37322;DHT22;23697;48.684;9.032;2023-11-21T12:13:03;8.50;90.70
37322;DHT22;23697;48.684;9.032;2023-11-21T12:15:31;8.40;90.70
37322;DHT22;23697;48.684;9.032;2023-11-21T12:17:58;8.40;90.80
37322;DHT22;23697;48.684;9.032;2023-11-21T12:20:26;8.40;90.70
37322;DHT22;23697;48.684;9.032;2023-11-21T12:22:54;8.30;90.70
37322;DHT22;23697;48.684;9.032;2023-11-21T12:25:22;8.20;90.70
37322;DHT22;23697;48.684;9.032;2023-11-21T12:27:51;8.40;90.80
37322;DHT22;23697;48.684;9.032;2023-11-21T12:30:20;8.30;90.70
37322;DHT22;23697;48.684;9.032;2023-11-21T12:32:49;8.30;90.70
37322;DHT22;23697;48.684;9.032;2023-11-21T12:35:17;8.30;90.60
37322;DHT22;23697;48.684;9.032;2023-11-21T12:37:45;8.30;90.70
37322;DHT22;23697;48.684;9.032;2023-11-21T12:40:12;8.40;90.70
37322;DHT22;23697;48.684;9.032;2023-11-21T12:42:42;8.40;90.70
37322;DHT22;23697;48.684;9.032;2023-11-21T12:45:18;8.40;90.50
37322;DHT22;23697;48.684;9.032;2023-11-21T12:47:47;8.50;90.60
37322;DHT22;23697;48.684;9.032;2023-11-21T12:50:14;8.50;90.40
37322;DHT22;23697;48.684;9.032;2023-11-21T12:52:42;8.70;90.40
37322;DHT22;23697;48.684;9.032;2023-11-21T12:55:14;8.90;90.30
37322;DHT22;23697;48.684;9.032;2023-11-21T13:00:32;9.10;89.90
37322;DHT22;23697;48.684;9.032;2023-11-21T13:03:03;9.10;89.70
37322;DHT22;23697;48.684;9.032;2023-11-21T13:05:32;9.10;89.70
37322;DHT22;23697;48.684;9.032;2023-11-21T13:08:02;9.10;89.50
37322;DHT22;23697;48.684;9.032;2023-11-21T13:10:30;9.10;89.50
37322;DHT22;23697;48.684;9.032;2023-11-21T13:12:58;9.10;89.60
37322;DHT22;23697;48.684;9.032;2023-11-21T13:15:26;9.20;89.70
37322;DHT22;23697;48.684;9.032;2023-11-21T13:17:55;9.20;89.50
37322;DHT22;23697;48.684;9.032;2023-11-21T13:20:23;9.20;89.50
37322;DHT22;23697;48.684;9.032;2023-11-21T13:22:51;9.20;89.60
37322;DHT22;23697;48.684;9.032;2023-11-21T13:25:20;9.20;89.60
37322;DHT22;23697;48.684;9.032;2023-11-21T13:27:47;9.10;89.30
37322;DHT22;23697;48.684;9.032;2023-11-21T13:30:17;9.10;89.30
37322;DHT22;23697;48.684;9.032;2023-11-21T13:32:49;9.10;89.30
37322;DHT22;23697;48.684;9.032;2023-11-21T13:35:19;9.00;89.10
37322;DHT22;23697;48.684;9.032;2023-11-21T13:37:56;8.90;89.10
37322;DHT22;23697;48.684;9.032;2023-11-21T13:40:26;8.70;89.30
37322;DHT22;23697;48.684;9.032;2023-11-21T13:42:53;8.70;89.40
37322;DHT22;23697;48.684;9.032;2023-11-21T13:45:24;8.70;89.50
37322;DHT22;23697;48.684;9.032;2023-11-21T13:47:52;8.60;89.70
37322;DHT22;23697;48.684;9.032;2023-11-21T13:50:24;8.60;89.80
37322;DHT22;23697;48.684;9.032;2023-11-21T13:52:55;8.50;89.80
37322;DHT22;23697;48.684;9.032;2023-11-21T13:55:23;8.30;89.50
37322;DHT22;23697;48.684;9.032;2023-11-21T13:57:51;8.20;89.50
37322;DHT22;23697;48.684;9.032;2023-11-21T14:00:18;8.20;89.60
37322;DHT22;23697;48.684;9.032;2023-11-21T14:03:07;8.30;89.70
37322;DHT22;23697;48.684;9.032;2023-11-21T14:05:44;8.40;89.80
37322;DHT22;23697;48.684;9.032;2023-11-21T14:08:12;8.30;89.70
37322;DHT22;23697;48.684;9.032;2023-11-21T14:10:42;8.30;89.80
37322;DHT22;23697;48.684;9.032;2023-11-21T14:13:09;8.30;89.70
37322;DHT22;23697;48.684;9.032;2023-11-21T14:15:39;8.30;89.80
37322;DHT22;23697;48.684;9.032;2023-11-21T14:18:11;8.20;89.80
37322;DHT22;23697;48.684;9.032;2023-11-21T14:20:40;8.30;89.90
37322;DHT22;23697;48.684;9.032;2023-11-21T14:23:09;8.30;89.90
37322;DHT22;23697;48.684;9.032;2023-11-21T14:25:38;8.20;89.90
37322;DHT22;23697;48.684;9.032;2023-11-21T14:28:07;8.20;90.00
37322;DHT22;23697;48.684;9.032;2023-11-21T14:30:37;8.30;90.10
37322;DHT22;23697;48.684;9.032;2023-11-21T14:33:05;8.20;90.00
37322;DHT22;23697;48.684;9.032;2023-11-21T14:35:34;8.10;90.00
37322;DHT22;23697;48.684;9.032;2023-11-21T14:38:00;8.20;90.10
37322;DHT22;23697;48.684;9.032;2023-11-21T14:40:31;8.10;90.10
37322;DHT22;23697;48.684;9.032;2023-11-21T14:43:00;8.10;90.10
37322;DHT22;23697;48.684;9.032;2023-11-21T14:45:28;8.10;90.20
37322;DHT22;23697;48.684;9.032;2023-11-21T14:47:55;8.20;90.30
37322;DHT22;23697;48.684;9.032;2023-11-21T14:50:32;8.10;90.30
37322;DHT22;23697;48.684;9.032;2023-11-21T14:53:12;8.10;90.20
37322;DHT22;23697;48.684;9.032;2023-11-21T14:55:40;8.10;90.30
37322;DHT22;23697;48.684;9.032;2023-11-21T14:58:20;8.10;90.30
37322;DHT22;23697;48.684;9.032;2023-11-21T15:00:53;8.10;90.30
37322;DHT22;23697;48.684;9.032;2023-11-21T15:03:24;8.10;90.30
37322;DHT22;23697;48.684;9.032;2023-11-21T15:06:05;8.00;90.30
37322;DHT22;23697;48.684;9.032;2023-11-21T15:08:49;8.00;90.40
37322;DHT22;23697;48.684;9.032;2023-11-21T15:11:22;8.00;90.40
37322;DHT22;23697;48.684;9.032;2023-11-21T15:13:56;8.00;90.40
37322;DHT22;23697;48.684;9.032;2023-11-21T15:16:22;7.90;90.40
37322;DHT22;23697;48.684;9.032;2023-11-21T15:18:48;7.90;90.50
37322;DHT22;23697;48.684;9.032;2023-11-21T15:21:15;7.90;90.50
37322;DHT22;23697;48.684;9.032;2023-11-21T15:23:42;7.90;90.50
37322;DHT22;23697;48.684;9.032;2023-11-21T15:26:09;7.90;90.50
37322;DHT22;23697;48.684;9.032;2023-11-21T15:28:37;7.90;90.50
37322;DHT22;23697;48.684;9.032;2023-11-21T15:31:04;7.80;90.40
37322;DHT22;23697;48.684;9.032;2023-11-21T15:33:33;7.70;90.50
37322;DHT22;23697;48.684;9.032;2023-11-21T15:36:01;7.70;90.60
37322;DHT22;23697;48.684;9.032;2023-11-21T15:38:28;7.80;90.70
37322;DHT22;23697;48.684;9.032;2023-11-21T15:40:54;7.80;90.70
37322;DHT22;23697;48.684;9.032;2023-11-21T15:43:24;7.70;90.70
37322;DHT22;23697;48.684;9.032;2023-11-21T15:45:53;7.60;90.80
37322;DHT22;23697;48.684;9.032;2023-11-21T15:48:21;7.70;90.90
37322;DHT22;23697;48.684;9.032;2023-11-21T15:50:47;7.70;91.00
37322;DHT22;23697;48.684;9.032;2023-11-21T15:53:17;7.70;91.00
37322;DHT22;23697;48.684;9.032;2023-11-21T15:55:44;7.70;91.00
37322;DHT22;23697;48.684;9.032;2023-11-21T15:58:10;7.60;90.90
37322;DHT22;23697;48.684;9.032;2023-11-21T16:00:39;7.60;90.90